createdAt,value
2019-04-26T12:21:48.838Z,28.80
2019-04-26T12:24:18.644Z,29.40
2019-04-26T12:26:48.161Z,30.00
2019-04-26T12:29:17.684Z,30.00
2019-04-26T12:31:47.250Z,30.30
2019-04-26T12:34:17.888Z,30.50
2019-04-26T12:36:48.089Z,30.80
2019-04-26T12:39:17.929Z,30.80
2019-04-26T12:41:47.514Z,30.80
2019-04-26T12:44:17.295Z,30.90
2019-04-26T12:46:54.511Z,30.30
2019-04-26T12:49:25.392Z,30.40
2019-04-26T12:51:55.073Z,30.60
2019-04-26T12:54:24.583Z,30.50
2019-04-26T12:56:54.129Z,29.90
2019-04-26T12:59:26.515Z,29.50
2019-04-26T13:02:05.000Z,29.10
2019-04-26T13:04:35.508Z,28.80
2019-04-26T13:07:23.413Z,29.30
2019-04-26T13:09:47.651Z,29.80
2019-04-26T13:12:29.791Z,30.50
2019-04-26T13:15:26.064Z,30.90
2019-04-26T13:17:56.219Z,30.50
2019-04-26T13:20:28.790Z,30.30
2019-04-26T13:22:56.913Z,30.60
2019-04-26T13:25:26.855Z,31.00
2019-04-26T13:27:57.480Z,31.00
2019-04-26T13:30:33.066Z,31.20
2019-04-26T13:32:58.335Z,30.90
2019-04-26T13:35:27.929Z,30.00
2019-04-26T13:37:57.651Z,30.00
2019-04-26T13:40:29.555Z,30.00
2019-04-26T13:42:58.421Z,30.30
2019-04-26T13:45:38.129Z,30.50
2019-04-26T13:48:27.331Z,30.50
2019-04-26T13:51:07.586Z,30.10
2019-04-26T13:53:36.984Z,29.50
2019-04-26T13:56:06.486Z,29.50
2019-04-26T13:58:36.019Z,29.90
2019-04-26T14:01:06.236Z,30.10
2019-04-26T14:03:35.713Z,30.60
2019-04-26T14:06:05.253Z,30.70
2019-04-26T14:08:34.886Z,31.00
2019-04-26T14:11:04.817Z,31.20
2019-04-26T14:13:35.893Z,31.20
2019-04-26T14:16:05.704Z,30.90
2019-04-26T14:18:38.973Z,30.80
2019-04-26T14:21:06.356Z,31.10
2019-04-26T14:23:45.383Z,31.50
2019-04-26T14:52:12.294Z,29.40
2019-04-26T14:54:46.062Z,29.80
2019-04-26T16:49:09.222Z,25.60
